createdAt,value
2022-11-25T00:02:32.600Z,100781.91
2022-11-25T00:07:39.047Z,100774.66
2022-11-25T00:12:42.914Z,100774.66
2022-11-25T00:17:46.624Z,100754.91
2022-11-25T00:22:52.040Z,100743.94
2022-11-25T00:27:55.833Z,100736.16
2022-11-25T00:33:00.938Z,100729.50
2022-11-25T00:38:06.078Z,100733.03
2022-11-25T00:43:23.991Z,100732.00
2022-11-25T00:48:27.694Z,100732.88
2022-11-25T00:53:33.256Z,100729.66
2022-11-25T00:58:36.961Z,100729.94
2022-11-25T01:03:40.679Z,100734.34
2022-11-25T01:08:45.978Z,100737.97
2022-11-25T01:13:50.334Z,100747.44
2022-11-25T01:18:54.054Z,100752.00
2022-11-25T01:24:01.145Z,100763.41
2022-11-25T01:29:07.720Z,100763.53
2022-11-25T01:34:16.239Z,100780.00
2022-11-25T01:39:28.683Z,100798.66
2022-11-25T01:44:37.740Z,100816.84
2022-11-25T01:49:45.860Z,100813.00
2022-11-25T01:54:57.316Z,100819.78
2022-11-25T02:00:04.991Z,100826.31
2022-11-25T02:05:30.940Z,100836.72
2022-11-25T02:10:39.626Z,100852.06
2022-11-25T02:15:43.440Z,100828.66
2022-11-25T02:20:47.383Z,100826.09
2022-11-25T02:25:54.620Z,100824.97
2022-11-25T02:30:58.913Z,100836.13
2022-11-25T02:36:06.152Z,100842.75
2022-11-25T02:41:14.395Z,100860.78
2022-11-25T02:46:22.961Z,100847.91
2022-11-25T02:51:29.770Z,100823.56
2022-11-25T02:56:37.339Z,100801.97
2022-11-25T03:01:41.321Z,100839.78
2022-11-25T03:06:45.416Z,100833.56
2022-11-25T03:12:07.974Z,100848.94
2022-11-25T03:17:11.904Z,100848.16
2022-11-25T03:22:15.810Z,100848.78
2022-11-25T03:27:21.211Z,100867.72
2022-11-25T03:32:25.089Z,100877.87
2022-11-25T03:37:28.973Z,100868.38
2022-11-25T03:42:34.385Z,100868.19
2022-11-25T03:47:39.137Z,100867.25
2022-11-25T03:52:42.890Z,100880.69
2022-11-25T03:57:48.337Z,100893.50
2022-11-25T04:02:52.181Z,100900.25
2022-11-25T04:07:58.178Z,100902.66
2022-11-25T04:13:03.827Z,100915.28
2022-11-25T04:18:08.860Z,100919.13
2022-11-25T04:23:13.485Z,100918.41
2022-11-25T04:28:19.829Z,100928.47
2022-11-25T04:33:23.997Z,100934.81
2022-11-25T04:38:27.883Z,100933.59
2022-11-25T04:43:36.004Z,100946.22
2022-11-25T04:48:40.821Z,100964.25
2022-11-25T04:53:45.884Z,100971.00
2022-11-25T04:59:08.880Z,100966.81
2022-11-25T05:04:14.236Z,100971.63
2022-11-25T05:09:18.291Z,100978.81
2022-11-25T05:14:25.389Z,100981.75
2022-11-25T05:19:29.324Z,100983.09
2022-11-25T05:24:34.169Z,100983.91
2022-11-25T05:29:40.891Z,100992.59
2022-11-25T05:34:45.559Z,100985.50
2022-11-25T05:39:49.955Z,100990.66
2022-11-25T05:44:58.083Z,101001.38
2022-11-25T05:50:02.125Z,101004.84
2022-11-25T05:55:07.021Z,101004.13
2022-11-25T06:00:13.765Z,101003.22
2022-11-25T06:05:18.350Z,101031.50
2022-11-25T06:10:22.434Z,101041.59
2022-11-25T06:15:28.063Z,101056.06
2022-11-25T06:20:32.799Z,101056.06
2022-11-25T06:25:37.567Z,101054.03
2022-11-25T06:30:44.589Z,101058.03
2022-11-25T06:35:49.993Z,101062.91
2022-11-25T06:40:56.443Z,101069.75
2022-11-25T06:46:06.017Z,101065.22
2022-11-25T06:51:12.671Z,101064.31
2022-11-25T06:56:18.628Z,101081.19
2022-11-25T07:01:25.681Z,101083.38
2022-11-25T07:06:29.427Z,101096.97
2022-11-25T07:11:35.677Z,101099.19
2022-11-25T07:16:43.865Z,101104.16
2022-11-25T07:21:47.844Z,101115.66
2022-11-25T07:26:51.482Z,101120.50
2022-11-25T07:31:56.510Z,101135.66
2022-11-25T07:37:00.254Z,101133.00
2022-11-25T07:42:04.024Z,101155.06
2022-11-25T07:47:09.107Z,101165.47
2022-11-25T07:52:12.812Z,101178.31
2022-11-25T07:57:16.604Z,101188.44
2022-11-25T08:02:21.707Z,101196.22
2022-11-25T08:07:25.639Z,101196.03
2022-11-25T08:12:29.389Z,101203.88
2022-11-25T08:17:34.527Z,101206.50
2022-11-25T08:22:38.284Z,101212.84
2022-11-25T08:27:42.307Z,101207.09
2022-11-25T08:32:47.585Z,101213.41
2022-11-25T08:37:51.287Z,101219.44
2022-11-25T08:42:55.130Z,101214.88
2022-11-25T08:48:00.354Z,101225.56
2022-11-25T08:53:04.168Z,101234.53
2022-11-25T08:58:10.130Z,101244.34
2022-11-25T09:03:15.326Z,101259.97
2022-11-25T09:08:19.329Z,101255.41
2022-11-25T09:13:23.093Z,101252.59
2022-11-25T09:18:30.366Z,101256.72
2022-11-25T09:23:34.099Z,101265.94
2022-11-25T09:28:37.852Z,101265.72
2022-11-25T09:33:43.152Z,101273.09
2022-11-25T09:38:47.740Z,101273.66
2022-11-25T09:44:20.844Z,101287.84
2022-11-25T09:49:47.029Z,101285.72
2022-11-25T09:54:59.139Z,101293.91
2022-11-25T10:00:12.871Z,101296.31
2022-11-25T10:05:22.291Z,101312.38
2022-11-25T10:10:29.896Z,101319.06
2022-11-25T10:15:36.628Z,101324.03
2022-11-25T10:20:43.628Z,101343.31
2022-11-25T10:25:51.477Z,101348.19
2022-11-25T10:31:02.669Z,101358.31
2022-11-25T10:36:15.733Z,101349.56
2022-11-25T10:41:22.270Z,101343.78
2022-11-25T10:46:57.416Z,101347.34
2022-11-25T10:52:02.028Z,101367.47
2022-11-25T10:57:18.754Z,101369.41
2022-11-25T11:02:26.728Z,101350.97
2022-11-25T11:07:34.186Z,101373.75
2022-11-25T11:12:38.023Z,101375.56
2022-11-25T11:17:42.000Z,101378.53
2022-11-25T11:22:55.722Z,101388.16
2022-11-25T11:28:00.246Z,101391.28
2022-11-25T11:33:06.761Z,101407.25
2022-11-25T11:38:25.848Z,101406.47
2022-11-25T11:43:54.371Z,101406.09
2022-11-25T11:49:10.581Z,101423.34
2022-11-25T11:54:20.719Z,101423.84
2022-11-25T11:59:49.899Z,101421.06
2022-11-25T12:05:01.778Z,101433.87
2022-11-25T12:10:20.083Z,101441.56
2022-11-25T12:15:26.064Z,101449.75
2022-11-25T12:20:39.629Z,101457.66
2022-11-25T12:25:46.854Z,101475.66
2022-11-25T12:31:05.105Z,101457.16
2022-11-25T12:36:14.387Z,101480.53
2022-11-25T12:41:26.065Z,101476.59
2022-11-25T12:46:36.211Z,101479.78
2022-11-25T12:51:52.645Z,101483.88
2022-11-25T12:57:22.631Z,101488.03
2022-11-25T13:02:55.598Z,101498.56
2022-11-25T13:08:10.727Z,101505.97
2022-11-25T13:13:33.964Z,101511.53
2022-11-25T13:18:42.455Z,101528.69
2022-11-25T13:23:52.103Z,101529.44
2022-11-25T13:28:57.921Z,101535.13
2022-11-25T13:34:21.952Z,101541.38
2022-11-25T13:39:34.376Z,101544.53
2022-11-25T13:44:51.783Z,101561.47
2022-11-25T13:49:58.237Z,101559.06
2022-11-25T13:55:08.556Z,101562.94
2022-11-25T14:00:59.966Z,101571.00
2022-11-25T14:06:12.623Z,101578.94
2022-11-25T14:11:50.365Z,101595.09
2022-11-25T14:17:08.021Z,101588.88
2022-11-25T14:22:32.120Z,101601.09
2022-11-25T14:27:37.109Z,101601.47
2022-11-25T14:32:45.883Z,101620.44
2022-11-25T14:37:54.133Z,101625.69
2022-11-25T14:43:04.370Z,101628.12
2022-11-25T14:48:15.090Z,101641.97
2022-11-25T14:53:20.191Z,101650.97
2022-11-25T14:58:24.006Z,101663.66
2022-11-25T15:03:28.643Z,101679.31
2022-11-25T15:08:41.467Z,101683.22
2022-11-25T15:13:47.722Z,101684.72
2022-11-25T15:18:54.009Z,101692.25
2022-11-25T15:23:59.403Z,101704.59
2022-11-25T15:29:11.413Z,101723.00
2022-11-25T15:34:17.274Z,101721.59
2022-11-25T15:39:27.754Z,101727.97
2022-11-25T15:44:34.904Z,101736.09
2022-11-25T15:49:38.869Z,101754.19
2022-11-25T15:54:47.131Z,101761.06
2022-11-25T16:00:03.824Z,101777.91
2022-11-25T16:05:26.095Z,101792.44
2022-11-25T16:10:32.695Z,101794.38
2022-11-25T16:15:48.661Z,101809.69
2022-11-25T16:20:55.030Z,101820.25
2022-11-25T16:26:03.583Z,101844.00
2022-11-25T16:31:07.443Z,101846.41
2022-11-25T16:36:11.281Z,101850.28
2022-11-25T16:41:22.793Z,101873.22
2022-11-25T16:46:26.607Z,101876.72
2022-11-25T16:51:30.334Z,101882.13
2022-11-25T16:56:38.107Z,101891.66
2022-11-25T17:01:42.044Z,101913.84
2022-11-25T17:07:09.570Z,101931.41
2022-11-25T17:12:17.323Z,101930.03
2022-11-25T17:17:24.617Z,101944.00
2022-11-25T17:22:32.298Z,101949.53
2022-11-25T17:27:40.517Z,101957.03
2022-11-25T17:32:44.413Z,101968.03
2022-11-25T17:37:48.830Z,101978.97
2022-11-25T17:42:54.201Z,101991.06
2022-11-25T17:47:57.872Z,102004.44
2022-11-25T17:53:01.604Z,102005.00
2022-11-25T17:58:08.709Z,102019.16
2022-11-25T18:03:13.892Z,102032.72
2022-11-25T18:08:17.767Z,102023.09
2022-11-25T18:13:23.128Z,102033.87
2022-11-25T18:18:27.385Z,102029.97
2022-11-25T18:23:31.377Z,102043.75
2022-11-25T18:28:36.508Z,102050.47
2022-11-25T18:33:40.222Z,102059.78
2022-11-25T18:38:45.640Z,102073.34
2022-11-25T18:43:51.887Z,102087.25
2022-11-25T18:48:56.371Z,102086.91
2022-11-25T18:54:00.104Z,102096.19
2022-11-25T18:59:06.081Z,102106.06
2022-11-25T19:04:16.171Z,102109.41
2022-11-25T19:09:19.993Z,102112.09
2022-11-25T19:14:30.971Z,102117.91
2022-11-25T19:19:37.761Z,102135.37
2022-11-25T19:24:42.404Z,102131.13
2022-11-25T19:29:48.537Z,102133.22
2022-11-25T19:34:56.110Z,102142.94
2022-11-25T19:39:59.848Z,102155.56
2022-11-25T19:45:05.625Z,102161.91
2022-11-25T19:50:16.768Z,102174.31
2022-11-25T19:55:22.262Z,102171.75
2022-11-25T20:00:27.811Z,102186.66
2022-11-25T20:05:34.578Z,102195.22
2022-11-25T20:10:38.685Z,102203.59
2022-11-25T20:15:45.853Z,102218.38
2022-11-25T20:20:56.933Z,102213.66
2022-11-25T20:26:00.919Z,102211.97
2022-11-25T20:31:06.139Z,102233.22
2022-11-25T20:36:17.583Z,102238.88
2022-11-25T20:41:27.727Z,102234.91
2022-11-25T20:46:33.335Z,102238.03
2022-11-25T20:51:37.014Z,102250.00
2022-11-25T20:56:40.823Z,102259.28
2022-11-25T21:01:45.988Z,102266.63
2022-11-25T21:06:49.784Z,102275.00
2022-11-25T21:11:53.578Z,102287.34
2022-11-25T21:16:58.695Z,102289.69
2022-11-25T21:22:02.756Z,102292.91
2022-11-25T21:27:14.527Z,102304.37
2022-11-25T21:32:22.823Z,102307.44
2022-11-25T21:37:30.970Z,102317.34
2022-11-25T21:42:34.946Z,102331.78
2022-11-25T21:47:40.062Z,102334.84
2022-11-25T21:52:43.793Z,102337.44
2022-11-25T21:57:47.680Z,102348.13
2022-11-25T22:02:53.174Z,102356.72
2022-11-25T22:07:57.202Z,102365.19
2022-11-25T22:13:01.089Z,102370.47
2022-11-25T22:18:06.594Z,102375.63
2022-11-25T22:23:14.941Z,102372.91
2022-11-25T22:28:19.550Z,102378.81
2022-11-25T22:33:32.345Z,102379.59
2022-11-25T22:38:36.093Z,102389.63
2022-11-25T22:43:46.478Z,102392.44
2022-11-25T22:48:51.583Z,102399.34
2022-11-25T22:53:55.261Z,102405.12
2022-11-25T22:59:01.174Z,102423.75
2022-11-25T23:04:06.642Z,102421.34
2022-11-25T23:09:15.546Z,102427.50
2022-11-25T23:14:19.236Z,102431.31
2022-11-25T23:19:24.407Z,102433.87
2022-11-25T23:24:28.358Z,102444.28
2022-11-25T23:29:32.065Z,102457.91
2022-11-25T23:34:37.514Z,102458.19
2022-11-25T23:39:41.692Z,102467.25
2022-11-25T23:44:45.779Z,102472.41
2022-11-25T23:49:53.883Z,102477.28
2022-11-25T23:54:57.642Z,102477.34
